Maersk Lima — VRKB9 — position and weather

sailwx.info

Track history (hours):
 
Tides and Currents Weather Stations Pressure Air Temp Water Temp Dewpoint Dewpoint Depression Visibility Wind Speed Wind Dir Waves Ship Positions

Maersk Lima

Last reported at 2018-Feb-25 15:30 UTC. Time now 2018-Feb-25 15:55 UTC.
Position N 52°54' E 004°17'.

Length 300 m; draft 9 m.

Type: Ship (hazmat cat A). MMSI: 477423600.

Date/timePositionNaut miles runAvg speedWind from/ knotsBaromVisibWave heightAir tempDewpointWater temp
2018-Feb-25 15:30N 52°54' E 004°17'918.6
2018-Feb-25 15:00N 52°46' E 004°10'918.8
2018-Feb-25 14:30N 52°38' E 004°01'919.0
2018-Feb-25 14:00N 52°33' E 003°48'1019.5
2018-Feb-25 13:30N 52°25' E 003°37'1019.4
2018-Feb-25 13:00N 52°18' E 003°27'1119.6
2018-Feb-25 12:28N 52°11' E 003°14'3819.0
2018-Feb-25 10:28N 51°54' E 002°19'919.8
2018-Feb-25 10:00N 51°52' E 002°05'1019.1
2018-Feb-25 09:31N 51°48' E 001°51'815.8
2018-Feb-25 09:00N 51°51' E 001°39'611.6
2018-Feb-25 08:30N 51°56' E 001°33'714.7
2018-Feb-25 08:00N 51°56' E 001°21'3 5.7
2018-Feb-25 07:30N 51°57' E 001°18'0 0.3
2018-Feb-25 07:00N 51°58' E 001°18'0 0.0
2018-Feb-25 06:30N 51°58' E 001°18'0 0.0
2018-Feb-25 06:00N 51°58' E 001°18'0 0.0
2018-Feb-25 05:30N 51°58' E 001°18'0 0.0
2018-Feb-25 05:00N 51°58' E 001°18'0 0.0
2018-Feb-25 04:30N 51°58' E 001°18'0 0.0
2018-Feb-25 04:00N 51°58' E 001°18'0 0.0
2018-Feb-25 03:30N 51°58' E 001°18'0 0.0
2018-Feb-25 03:00N 51°58' E 001°18'0 0.0
2018-Feb-25 02:30N 51°58' E 001°18'0 0.0
2018-Feb-25 02:00N 51°58' E 001°18'0 0.0
2018-Feb-25 01:30N 51°58' E 001°18'0 0.0
2018-Feb-25 01:00N 51°58' E 001°18'0 0.0
2018-Feb-25 00:30N 51°58' E 001°18'0 0.0
2018-Feb-25 00:00N 51°58' E 001°18'0 0.0
2018-Feb-24 23:30N 51°58' E 001°18'0 0.0
2018-Feb-24 23:00N 51°58' E 001°18'0 0.0
2018-Feb-24 22:30N 51°58' E 001°18'0 0.0
2018-Feb-24 22:00N 51°58' E 001°18'0 0.0
2018-Feb-24 21:30N 51°58' E 001°18'0 0.0
2018-Feb-24 21:00N 51°58' E 001°18'0 0.0
2018-Feb-24 20:30N 51°58' E 001°18'0 0.0
2018-Feb-24 20:00N 51°58' E 001°18'0 0.0
2018-Feb-24 19:30N 51°58' E 001°18'0 0.0
2018-Feb-24 19:00N 51°58' E 001°18'0 0.0
2018-Feb-24 18:30N 51°58' E 001°18'0 0.0
2018-Feb-24 18:00N 51°58' E 001°18'0 0.0
2018-Feb-24 17:30N 51°58' E 001°18'0 0.0
2018-Feb-24 17:00N 51°58' E 001°18'0 0.0
2018-Feb-24 16:30N 51°58' E 001°18'0 0.0
2018-Feb-24 16:00N 51°58' E 001°18'0 0.0
2018-Feb-24 15:30N 51°58' E 001°18'0 0.0
2018-Feb-24 15:00N 51°58' E 001°18'0 0.0
2018-Feb-24 14:30N 51°58' E 001°18'0 0.0
2018-Feb-24 14:00N 51°58' E 001°18'0 0.0
2018-Feb-24 13:30N 51°58' E 001°18'0 0.0
2018-Feb-24 13:00N 51°58' E 001°18'0 0.0
2018-Feb-24 12:30N 51°58' E 001°18'0 0.0
2018-Feb-24 12:00N 51°58' E 001°18'0 0.0
2018-Feb-24 11:30N 51°58' E 001°18'0 0.0
2018-Feb-24 11:00N 51°58' E 001°18'0 0.0
2018-Feb-24 10:30N 51°58' E 001°18'1 2.1
2018-Feb-24 10:00N 51°57' E 001°18'4 8.3
2018-Feb-24 09:30N 51°56' E 001°25'611.4
2018-Feb-24 09:00N 51°54' E 001°34'4 8.2
2018-Feb-24 08:30N 51°52' E 001°40'3 5.4
2018-Feb-24 08:00N 51°51' E 001°44'2 4.3
2018-Feb-24 07:30N 51°51' E 001°47'3 6.6
2018-Feb-24 07:00N 51°48' E 001°47'4 8.8
2018-Feb-24 06:30N 51°43' E 001°48'4 7.8
2018-Feb-24 06:00N 51°39' E 001°48'4 7.4
2018-Feb-24 05:30N 51°36' E 001°51'4 8.0
2018-Feb-24 05:00N 51°32' E 001°53'4 8.0
2018-Feb-24 04:30N 51°29' E 001°57'5 9.0
2018-Feb-24 04:00N 51°26' E 002°02'3 6.0
2018-Feb-24 03:30N 51°23' E 002°01'3 5.7
2018-Feb-24 03:00N 51°21' E 001°58'2 5.0
2018-Feb-24 02:30N 51°19' E 001°56'510.6
2018-Feb-24 02:01N 51°14' E 001°51'816.0
2018-Feb-24 01:30N 51°08' E 001°43'815.4
2018-Feb-24 01:00N 51°02' E 001°35'815.5
2018-Feb-24 00:30N 50°57' E 001°27'816.4
2018-Feb-24 00:00N 50°49' E 001°23'816.2
2018-Feb-23 23:30N 50°41' E 001°18'817.0
2018-Feb-23 23:00N 50°36' E 001°08'917.2
2018-Feb-23 22:30N 50°31' E 000°57'917.3
2018-Feb-23 22:00N 50°28' E 000°44'917.1
2018-Feb-23 21:30N 50°25' E 000°31'917.2
2018-Feb-23 21:00N 50°23' E 000°18'917.5
2018-Feb-23 20:30N 50°20' E 000°05'917.3
2018-Feb-23 20:00N 50°18' W 000°08'917.0
2018-Feb-23 19:30N 50°16' W 000°21'816.9
2018-Feb-23 19:00N 50°14' W 000°34'916.6
2018-Feb-23 18:30N 50°12' W 000°47'916.5
2018-Feb-23 17:57N 50°09' W 001°00'716.1
2018-Feb-23 17:30N 50°08' W 001°11'816.6
2018-Feb-23 17:00N 50°06' W 001°23'816.5
2018-Feb-23 16:30N 50°03' W 001°36'816.0
2018-Feb-23 16:00N 50°02' W 001°48'817.0
2018-Feb-23 15:30N 49°60' W 002°01'917.6
2018-Feb-23 15:00N 49°58' W 002°14'917.9
2018-Feb-23 14:30N 49°55' W 002°27'1018.1
2018-Feb-23 13:56N 49°53' W 002°43'818.2
2018-Feb-23 13:30N 49°50' W 002°55'918.1
2018-Feb-23 13:00N 49°47' W 003°07'918.3
2018-Feb-23 12:30N 49°42' W 003°20'1018.2
2018-Feb-23 11:58N 49°37' W 003°33'818.0
2018-Feb-23 11:30N 49°32' W 003°43'918.4
2018-Feb-23 11:00N 49°27' W 003°54'1218.4
2018-Feb-23 10:22N 49°20' W 004°09'1518.4
2018-Feb-23 09:34N 49°11' W 004°27'318.4
2018-Feb-23 09:25N 49°10' W 004°31'818.6
2018-Feb-23 08:58N 49°06' W 004°43'918.7
2018-Feb-23 08:30N 49°02' W 004°54'918.4
2018-Feb-23 08:00N 48°58' W 005°07'918.5
2018-Feb-23 07:30N 48°53' W 005°19'918.6
2018-Feb-23 07:00N 48°48' W 005°31'917.9
2018-Feb-23 06:30N 48°42' W 005°41'919.1
2018-Feb-23 06:00N 48°33' W 005°47'918.9
2018-Feb-23 05:30N 48°25' W 005°54'1118.9
2018-Feb-23 04:55N 48°15' W 006°02'819.0
2018-Feb-23 04:30N 48°08' W 006°07'1018.9
2018-Feb-23 04:00N 47°60' W 006°14'918.7
2018-Feb-23 03:30N 47°51' W 006°19'1018.4
2018-Feb-23 02:59N 47°43' W 006°26'918.2
2018-Feb-23 02:30N 47°35' W 006°32'1018.3
2018-Feb-23 01:58N 47°27' W 006°39'47218.4
2018-Feb-22 00:23N 39°56' W 009°51'3519.3
2018-Feb-21 22:33N 39°21' W 009°51'119.1
2018-Feb-21 22:30N 39°20' W 009°51'918.9
2018-Feb-21 22:00N 39°10' W 009°51'918.8
2018-Feb-21 21:30N 39°01' W 009°51'918.9
2018-Feb-21 21:00N 38°52' W 009°51'918.5
2018-Feb-21 20:30N 38°42' W 009°51'918.7
2018-Feb-21 20:00N 38°33' W 009°49'918.6
2018-Feb-21 19:30N 38°24' W 009°46'918.5
2018-Feb-21 19:00N 38°15' W 009°43'918.5
2018-Feb-21 18:30N 38°06' W 009°41'918.5
2018-Feb-21 18:00N 37°57' W 009°39'918.2
2018-Feb-21 17:30N 37°48' W 009°37'918.3
2018-Feb-21 17:00N 37°39' W 009°34'918.6
2018-Feb-21 16:30N 37°30' W 009°31'918.6
2018-Feb-21 16:00N 37°21' W 009°28'918.7
2018-Feb-21 15:30N 37°12' W 009°25'1018.6
2018-Feb-21 14:57N 37°02' W 009°22'818.5
2018-Feb-21 14:30N 36°54' W 009°19'1018.0
2018-Feb-21 13:58N 36°47' W 009°11'1118.4
2018-Feb-21 13:21N 36°43' W 008°58'618.2
2018-Feb-21 13:00N 36°41' W 008°50'1318.8
2018-Feb-21 12:18N 36°36' W 008°35'1519.5
2018-Feb-21 11:31N 36°31' W 008°17'120.4
2018-Feb-21 11:28N 36°31' W 008°16'13419.1
2018-Feb-21 04:28N 35°57' W 005°36'611.7
2018-Feb-21 03:59N 35°54' W 005°30'1 0.5
2018-Feb-21 02:24N 35°54' W 005°30'0 0.0
2018-Feb-20 19:29N 35°54' W 005°30'5 0.6
2018-Feb-20 12:02N 35°58' W 005°32'011.4
2018-Feb-20 12:00N 35°58' W 005°32'4 8.9
2018-Feb-20 11:30N 35°59' W 005°27'612.1
2018-Feb-20 11:00N 36°00' W 005°20'  
2018-Feb-17 18:22N 37°11' W 001°07'410.4
2018-Feb-17 17:58N 37°14' W 001°03'510.5
2018-Feb-17 17:30N 37°17' W 000°58'710.5
2018-Feb-17 16:51N 37°22' W 000°51'410.3
2018-Feb-17 16:30N 37°24' W 000°48'510.1
2018-Feb-17 16:00N 37°27' W 000°43'5 9.7
2018-Feb-17 15:30N 37°31' W 000°39'5 9.4
2018-Feb-17 15:00N 37°34' W 000°35'5 9.1
2018-Feb-17 14:30N 37°37' W 000°31'4 8.9
2018-Feb-17 14:00N 37°41' W 000°28'4 8.9
2018-Feb-17 13:30N 37°45' W 000°25'4 8.9
2018-Feb-17 13:00N 37°48' W 000°22'5 9.3
2018-Feb-17 12:29N 37°52' W 000°18'5 9.5
2018-Feb-17 12:00N 37°56' W 000°14'5 9.6
2018-Feb-17 11:30N 37°60' W 000°11'5 9.6
2018-Feb-17 11:00N 38°04' W 000°07'3 4.3
2018-Feb-17 10:18N 38°06' W 000°10'1 4.5
2018-Feb-17 10:00N 38°05' W 000°09'7915.1
2018-Feb-17 04:45N 39°24' W 000°15'312.0
2018-Feb-17 04:29N 39°26' W 000°18'1 1.7
2018-Feb-17 03:57N 39°26' W 000°20'0 0.0
2018-Feb-17 03:27N 39°26' W 000°20'0 0.0
2018-Feb-17 02:57N 39°26' W 000°20'0 0.0
2018-Feb-17 02:27N 39°26' W 000°20'0 0.0
2018-Feb-17 01:57N 39°26' W 000°20'0 0.0
2018-Feb-17 01:27N 39°26' W 000°20'0 0.0
2018-Feb-17 01:00N 39°26' W 000°20'0 0.0
2018-Feb-17 00:30N 39°26' W 000°20'0 0.0
2018-Feb-16 23:57N 39°26' W 000°20'0 0.0
2018-Feb-16 23:21N 39°26' W 000°20'0 0.0
2018-Feb-16 22:57N 39°26' W 000°20'0 0.0
2018-Feb-16 22:27N 39°26' W 000°20'0 0.0
2018-Feb-16 21:39N 39°26' W 000°20'0 0.0
2018-Feb-16 21:27N 39°26' W 000°20'0 0.0
2018-Feb-16 21:00N 39°26' W 000°20'0 0.0
2018-Feb-16 20:27N 39°26' W 000°20'0 0.0
2018-Feb-16 20:00N 39°26' W 000°20'0 0.0
2018-Feb-16 19:30N 39°26' W 000°20'0 0.0
2018-Feb-16 18:57N 39°26' W 000°20'0 0.0
2018-Feb-16 18:21N 39°26' W 000°20'0 0.0
2018-Feb-16 17:54N 39°26' W 000°20'0 0.0
2018-Feb-16 17:24N 39°26' W 000°20'0 0.0
2018-Feb-16 17:00N 39°26' W 000°20'0 0.0
2018-Feb-16 16:24N 39°26' W 000°20'0 0.0
2018-Feb-16 16:00N 39°26' W 000°20'0 0.0
2018-Feb-16 15:30N 39°26' W 000°20'0 0.0
2018-Feb-16 15:00N 39°26' W 000°20'0 0.0
2018-Feb-16 14:30N 39°26' W 000°20'0 0.0
2018-Feb-16 14:00N 39°26' W 000°20'0 0.0
2018-Feb-16 13:30N 39°26' W 000°20'0 0.0
2018-Feb-16 12:54N 39°26' W 000°20'0 0.0
2018-Feb-16 12:24N 39°26' W 000°20'0 0.0
2018-Feb-16 12:00N 39°26' W 000°20'0 0.0
2018-Feb-16 11:30N 39°26' W 000°20'0 0.0
2018-Feb-16 11:00N 39°26' W 000°20'0 0.0
2018-Feb-16 10:24N 39°26' W 000°20'0 0.0
2018-Feb-16 09:48N 39°26' W 000°20'0 0.0
2018-Feb-16 09:30N 39°26' W 000°20'1 1.3
2018-Feb-16 09:00N 39°26' W 000°19'3 5.8
2018-Feb-16 08:30N 39°25' W 000°15'510.7
2018-Feb-16 08:00N 39°25' W 000°08'11019.5
2018-Feb-16 02:20N 39°10' E 002°13'820.7
2018-Feb-16 01:58N 39°08' E 002°22'1020.6
2018-Feb-16 01:30N 39°06' E 002°35'1020.4
2018-Feb-16 01:00N 39°04' E 002°47'1020.3
2018-Feb-16 00:30N 39°01' E 002°60'1020.4
2018-Feb-16 00:00N 38°59' E 003°13'1020.7
2018-Feb-15 23:30N 38°56' E 003°26'1320.8
2018-Feb-15 22:53N 38°53' E 003°42'820.8
2018-Feb-15 22:30N 38°51' E 003°52'1120.8
2018-Feb-15 22:00N 38°48' E 004°05'1020.6
2018-Feb-15 21:30N 38°46' E 004°17'1020.6
2018-Feb-15 21:00N 38°44' E 004°30'1120.7
2018-Feb-15 20:29N 38°41' E 004°44'1020.9
2018-Feb-15 20:00N 38°38' E 004°56'  
Track history (hours):
 
Tides and Currents Weather Stations Pressure Air Temp Water Temp Dewpoint Dewpoint Depression Visibility Wind Speed Wind Dir Waves Ship Positions

Maersk Lima

Last reported at 2018-Feb-25 15:30 UTC. Time now 2018-Feb-25 15:55 UTC.
Position N 52°54' E 004°17'.

Length 300 m; draft 9 m.

Type: Ship (hazmat cat A). MMSI: 477423600.

Date/timePositionNaut miles runAvg speedWind from/ knotsBaromVisibWave heightAir tempDewpointWater temp
2018-Feb-25 15:30N 52°54' E 004°17'918.6
2018-Feb-25 15:00N 52°46' E 004°10'918.8
2018-Feb-25 14:30N 52°38' E 004°01'919.0
2018-Feb-25 14:00N 52°33' E 003°48'1019.5
2018-Feb-25 13:30N 52°25' E 003°37'1019.4
2018-Feb-25 13:00N 52°18' E 003°27'1119.6
2018-Feb-25 12:28N 52°11' E 003°14'3819.0
2018-Feb-25 10:28N 51°54' E 002°19'919.8
2018-Feb-25 10:00N 51°52' E 002°05'1019.1
2018-Feb-25 09:31N 51°48' E 001°51'815.8
2018-Feb-25 09:00N 51°51' E 001°39'611.6
2018-Feb-25 08:30N 51°56' E 001°33'714.7
2018-Feb-25 08:00N 51°56' E 001°21'3 5.7
2018-Feb-25 07:30N 51°57' E 001°18'0 0.3
2018-Feb-25 07:00N 51°58' E 001°18'0 0.0
2018-Feb-25 06:30N 51°58' E 001°18'0 0.0
2018-Feb-25 06:00N 51°58' E 001°18'0 0.0
2018-Feb-25 05:30N 51°58' E 001°18'0 0.0
2018-Feb-25 05:00N 51°58' E 001°18'0 0.0
2018-Feb-25 04:30N 51°58' E 001°18'0 0.0
2018-Feb-25 04:00N 51°58' E 001°18'0 0.0
2018-Feb-25 03:30N 51°58' E 001°18'0 0.0
2018-Feb-25 03:00N 51°58' E 001°18'0 0.0
2018-Feb-25 02:30N 51°58' E 001°18'0 0.0
2018-Feb-25 02:00N 51°58' E 001°18'0 0.0
2018-Feb-25 01:30N 51°58' E 001°18'0 0.0
2018-Feb-25 01:00N 51°58' E 001°18'0 0.0
2018-Feb-25 00:30N 51°58' E 001°18'0 0.0
2018-Feb-25 00:00N 51°58' E 001°18'0 0.0
2018-Feb-24 23:30N 51°58' E 001°18'0 0.0
2018-Feb-24 23:00N 51°58' E 001°18'0 0.0
2018-Feb-24 22:30N 51°58' E 001°18'0 0.0
2018-Feb-24 22:00N 51°58' E 001°18'0 0.0
2018-Feb-24 21:30N 51°58' E 001°18'0 0.0
2018-Feb-24 21:00N 51°58' E 001°18'0 0.0
2018-Feb-24 20:30N 51°58' E 001°18'0 0.0
2018-Feb-24 20:00N 51°58' E 001°18'0 0.0
2018-Feb-24 19:30N 51°58' E 001°18'0 0.0
2018-Feb-24 19:00N 51°58' E 001°18'0 0.0
2018-Feb-24 18:30N 51°58' E 001°18'0 0.0
2018-Feb-24 18:00N 51°58' E 001°18'0 0.0
2018-Feb-24 17:30N 51°58' E 001°18'0 0.0
2018-Feb-24 17:00N 51°58' E 001°18'0 0.0
2018-Feb-24 16:30N 51°58' E 001°18'0 0.0
2018-Feb-24 16:00N 51°58' E 001°18'0 0.0
2018-Feb-24 15:30N 51°58' E 001°18'0 0.0
2018-Feb-24 15:00N 51°58' E 001°18'0 0.0
2018-Feb-24 14:30N 51°58' E 001°18'0 0.0
2018-Feb-24 14:00N 51°58' E 001°18'0 0.0
2018-Feb-24 13:30N 51°58' E 001°18'0 0.0
2018-Feb-24 13:00N 51°58' E 001°18'0 0.0
2018-Feb-24 12:30N 51°58' E 001°18'0 0.0
2018-Feb-24 12:00N 51°58' E 001°18'0 0.0
2018-Feb-24 11:30N 51°58' E 001°18'0 0.0
2018-Feb-24 11:00N 51°58' E 001°18'0 0.0
2018-Feb-24 10:30N 51°58' E 001°18'1 2.1
2018-Feb-24 10:00N 51°57' E 001°18'4 8.3
2018-Feb-24 09:30N 51°56' E 001°25'611.4
2018-Feb-24 09:00N 51°54' E 001°34'4 8.2
2018-Feb-24 08:30N 51°52' E 001°40'3 5.4
2018-Feb-24 08:00N 51°51' E 001°44'2 4.3
2018-Feb-24 07:30N 51°51' E 001°47'3 6.6
2018-Feb-24 07:00N 51°48' E 001°47'4 8.8
2018-Feb-24 06:30N 51°43' E 001°48'4 7.8
2018-Feb-24 06:00N 51°39' E 001°48'4 7.4
2018-Feb-24 05:30N 51°36' E 001°51'4 8.0
2018-Feb-24 05:00N 51°32' E 001°53'4 8.0
2018-Feb-24 04:30N 51°29' E 001°57'5 9.0
2018-Feb-24 04:00N 51°26' E 002°02'3 6.0
2018-Feb-24 03:30N 51°23' E 002°01'3 5.7
2018-Feb-24 03:00N 51°21' E 001°58'2 5.0
2018-Feb-24 02:30N 51°19' E 001°56'510.6
2018-Feb-24 02:01N 51°14' E 001°51'816.0
2018-Feb-24 01:30N 51°08' E 001°43'815.4
2018-Feb-24 01:00N 51°02' E 001°35'815.5
2018-Feb-24 00:30N 50°57' E 001°27'816.4
2018-Feb-24 00:00N 50°49' E 001°23'816.2
2018-Feb-23 23:30N 50°41' E 001°18'817.0
2018-Feb-23 23:00N 50°36' E 001°08'917.2
2018-Feb-23 22:30N 50°31' E 000°57'917.3
2018-Feb-23 22:00N 50°28' E 000°44'917.1
2018-Feb-23 21:30N 50°25' E 000°31'917.2
2018-Feb-23 21:00N 50°23' E 000°18'917.5
2018-Feb-23 20:30N 50°20' E 000°05'917.3
2018-Feb-23 20:00N 50°18' W 000°08'917.0
2018-Feb-23 19:30N 50°16' W 000°21'816.9
2018-Feb-23 19:00N 50°14' W 000°34'916.6
2018-Feb-23 18:30N 50°12' W 000°47'916.5
2018-Feb-23 17:57N 50°09' W 001°00'716.1
2018-Feb-23 17:30N 50°08' W 001°11'816.6
2018-Feb-23 17:00N 50°06' W 001°23'816.5
2018-Feb-23 16:30N 50°03' W 001°36'816.0
2018-Feb-23 16:00N 50°02' W 001°48'817.0
2018-Feb-23 15:30N 49°60' W 002°01'917.6
2018-Feb-23 15:00N 49°58' W 002°14'917.9
2018-Feb-23 14:30N 49°55' W 002°27'1018.1
2018-Feb-23 13:56N 49°53' W 002°43'818.2
2018-Feb-23 13:30N 49°50' W 002°55'918.1
2018-Feb-23 13:00N 49°47' W 003°07'918.3
2018-Feb-23 12:30N 49°42' W 003°20'1018.2
2018-Feb-23 11:58N 49°37' W 003°33'818.0
2018-Feb-23 11:30N 49°32' W 003°43'918.4
2018-Feb-23 11:00N 49°27' W 003°54'1218.4
2018-Feb-23 10:22N 49°20' W 004°09'1518.4
2018-Feb-23 09:34N 49°11' W 004°27'318.4
2018-Feb-23 09:25N 49°10' W 004°31'818.6
2018-Feb-23 08:58N 49°06' W 004°43'918.7
2018-Feb-23 08:30N 49°02' W 004°54'918.4
2018-Feb-23 08:00N 48°58' W 005°07'918.5
2018-Feb-23 07:30N 48°53' W 005°19'918.6
2018-Feb-23 07:00N 48°48' W 005°31'917.9
2018-Feb-23 06:30N 48°42' W 005°41'919.1
2018-Feb-23 06:00N 48°33' W 005°47'918.9
2018-Feb-23 05:30N 48°25' W 005°54'1118.9
2018-Feb-23 04:55N 48°15' W 006°02'819.0
2018-Feb-23 04:30N 48°08' W 006°07'1018.9
2018-Feb-23 04:00N 47°60' W 006°14'918.7
2018-Feb-23 03:30N 47°51' W 006°19'1018.4
2018-Feb-23 02:59N 47°43' W 006°26'918.2
2018-Feb-23 02:30N 47°35' W 006°32'1018.3
2018-Feb-23 01:58N 47°27' W 006°39'47218.4
2018-Feb-22 00:23N 39°56' W 009°51'3519.3
2018-Feb-21 22:33N 39°21' W 009°51'119.1
2018-Feb-21 22:30N 39°20' W 009°51'918.9
2018-Feb-21 22:00N 39°10' W 009°51'918.8
2018-Feb-21 21:30N 39°01' W 009°51'918.9
2018-Feb-21 21:00N 38°52' W 009°51'918.5
2018-Feb-21 20:30N 38°42' W 009°51'918.7
2018-Feb-21 20:00N 38°33' W 009°49'918.6
2018-Feb-21 19:30N 38°24' W 009°46'918.5
2018-Feb-21 19:00N 38°15' W 009°43'918.5
2018-Feb-21 18:30N 38°06' W 009°41'918.5
2018-Feb-21 18:00N 37°57' W 009°39'918.2
2018-Feb-21 17:30N 37°48' W 009°37'918.3
2018-Feb-21 17:00N 37°39' W 009°34'918.6
2018-Feb-21 16:30N 37°30' W 009°31'918.6
2018-Feb-21 16:00N 37°21' W 009°28'918.7
2018-Feb-21 15:30N 37°12' W 009°25'1018.6
2018-Feb-21 14:57N 37°02' W 009°22'818.5
2018-Feb-21 14:30N 36°54' W 009°19'1018.0
2018-Feb-21 13:58N 36°47' W 009°11'1118.4
2018-Feb-21 13:21N 36°43' W 008°58'618.2
2018-Feb-21 13:00N 36°41' W 008°50'1318.8
2018-Feb-21 12:18N 36°36' W 008°35'1519.5
2018-Feb-21 11:31N 36°31' W 008°17'120.4
2018-Feb-21 11:28N 36°31' W 008°16'13419.1
2018-Feb-21 04:28N 35°57' W 005°36'611.7
2018-Feb-21 03:59N 35°54' W 005°30'1 0.5
2018-Feb-21 02:24N 35°54' W 005°30'0 0.0
2018-Feb-20 19:29N 35°54' W 005°30'5 0.6
2018-Feb-20 12:02N 35°58' W 005°32'011.4
2018-Feb-20 12:00N 35°58' W 005°32'4 8.9
2018-Feb-20 11:30N 35°59' W 005°27'612.1
2018-Feb-20 11:00N 36°00' W 005°20'  
2018-Feb-17 18:22N 37°11' W 001°07'410.4
2018-Feb-17 17:58N 37°14' W 001°03'510.5
2018-Feb-17 17:30N 37°17' W 000°58'710.5
2018-Feb-17 16:51N 37°22' W 000°51'410.3
2018-Feb-17 16:30N 37°24' W 000°48'510.1
2018-Feb-17 16:00N 37°27' W 000°43'5 9.7
2018-Feb-17 15:30N 37°31' W 000°39'5 9.4
2018-Feb-17 15:00N 37°34' W 000°35'5 9.1
2018-Feb-17 14:30N 37°37' W 000°31'4 8.9
2018-Feb-17 14:00N 37°41' W 000°28'4 8.9
2018-Feb-17 13:30N 37°45' W 000°25'4 8.9
2018-Feb-17 13:00N 37°48' W 000°22'5 9.3
2018-Feb-17 12:29N 37°52' W 000°18'5 9.5
2018-Feb-17 12:00N 37°56' W 000°14'5 9.6
2018-Feb-17 11:30N 37°60' W 000°11'5 9.6
2018-Feb-17 11:00N 38°04' W 000°07'3 4.3
2018-Feb-17 10:18N 38°06' W 000°10'1 4.5
2018-Feb-17 10:00N 38°05' W 000°09'7915.1
2018-Feb-17 04:45N 39°24' W 000°15'312.0
2018-Feb-17 04:29N 39°26' W 000°18'1 1.7
2018-Feb-17 03:57N 39°26' W 000°20'0 0.0
2018-Feb-17 03:27N 39°26' W 000°20'0 0.0
2018-Feb-17 02:57N 39°26' W 000°20'0 0.0
2018-Feb-17 02:27N 39°26' W 000°20'0 0.0
2018-Feb-17 01:57N 39°26' W 000°20'0 0.0
2018-Feb-17 01:27N 39°26' W 000°20'0 0.0
2018-Feb-17 01:00N 39°26' W 000°20'0 0.0
2018-Feb-17 00:30N 39°26' W 000°20'0 0.0
2018-Feb-16 23:57N 39°26' W 000°20'0 0.0
2018-Feb-16 23:21N 39°26' W 000°20'0 0.0
2018-Feb-16 22:57N 39°26' W 000°20'0 0.0
2018-Feb-16 22:27N 39°26' W 000°20'0 0.0
2018-Feb-16 21:39N 39°26' W 000°20'0 0.0
2018-Feb-16 21:27N 39°26' W 000°20'0 0.0
2018-Feb-16 21:00N 39°26' W 000°20'0 0.0
2018-Feb-16 20:27N 39°26' W 000°20'0 0.0
2018-Feb-16 20:00N 39°26' W 000°20'0 0.0
2018-Feb-16 19:30N 39°26' W 000°20'0 0.0
2018-Feb-16 18:57N 39°26' W 000°20'0 0.0
2018-Feb-16 18:21N 39°26' W 000°20'0 0.0
2018-Feb-16 17:54N 39°26' W 000°20'0 0.0
2018-Feb-16 17:24N 39°26' W 000°20'0 0.0
2018-Feb-16 17:00N 39°26' W 000°20'0 0.0
2018-Feb-16 16:24N 39°26' W 000°20'0 0.0
2018-Feb-16 16:00N 39°26' W 000°20'0 0.0
2018-Feb-16 15:30N 39°26' W 000°20'0 0.0
2018-Feb-16 15:00N 39°26' W 000°20'0 0.0
2018-Feb-16 14:30N 39°26' W 000°20'0 0.0
2018-Feb-16 14:00N 39°26' W 000°20'0 0.0
2018-Feb-16 13:30N 39°26' W 000°20'0 0.0
2018-Feb-16 12:54N 39°26' W 000°20'0 0.0
2018-Feb-16 12:24N 39°26' W 000°20'0 0.0
2018-Feb-16 12:00N 39°26' W 000°20'0 0.0
2018-Feb-16 11:30N 39°26' W 000°20'0 0.0
2018-Feb-16 11:00N 39°26' W 000°20'0 0.0
2018-Feb-16 10:24N 39°26' W 000°20'0 0.0
2018-Feb-16 09:48N 39°26' W 000°20'0 0.0
2018-Feb-16 09:30N 39°26' W 000°20'1 1.3
2018-Feb-16 09:00N 39°26' W 000°19'3 5.8
2018-Feb-16 08:30N 39°25' W 000°15'510.7
2018-Feb-16 08:00N 39°25' W 000°08'11019.5
2018-Feb-16 02:20N 39°10' E 002°13'820.7
2018-Feb-16 01:58N 39°08' E 002°22'1020.6
2018-Feb-16 01:30N 39°06' E 002°35'1020.4
2018-Feb-16 01:00N 39°04' E 002°47'1020.3
2018-Feb-16 00:30N 39°01' E 002°60'1020.4
2018-Feb-16 00:00N 38°59' E 003°13'1020.7
2018-Feb-15 23:30N 38°56' E 003°26'1320.8
2018-Feb-15 22:53N 38°53' E 003°42'820.8
2018-Feb-15 22:30N 38°51' E 003°52'1120.8
2018-Feb-15 22:00N 38°48' E 004°05'1020.6
2018-Feb-15 21:30N 38°46' E 004°17'1020.6
2018-Feb-15 21:00N 38°44' E 004°30'1120.7
2018-Feb-15 20:29N 38°41' E 004°44'1020.9
2018-Feb-15 20:00N 38°38' E 004°56'  

Dump ship's entire track history